createdAt,value
2023-02-02T00:01:30.411Z,97531.06
2023-02-02T00:03:58.267Z,97541.66
2023-02-02T00:06:27.595Z,97537.16
2023-02-02T00:08:57.439Z,97530.25
2023-02-02T00:11:25.492Z,97531.25
2023-02-02T00:13:53.082Z,97540.03
2023-02-02T00:16:47.373Z,97548.97
2023-02-02T00:19:17.873Z,97554.28
2023-02-02T00:21:46.047Z,97559.56
2023-02-02T00:24:14.948Z,97556.31
2023-02-02T00:26:43.677Z,97555.50
2023-02-02T00:29:17.154Z,97564.06
2023-02-02T00:31:45.822Z,97561.59
2023-02-02T00:34:14.202Z,97563.63
2023-02-02T00:36:42.797Z,97565.28
2023-02-02T00:39:12.933Z,97574.22
2023-02-02T00:41:40.368Z,97568.13
2023-02-02T00:44:26.190Z,97565.66
2023-02-02T00:46:53.626Z,97564.66
2023-02-02T00:49:21.345Z,97563.00
2023-02-02T00:51:49.846Z,97572.59
2023-02-02T00:54:17.007Z,97575.25
2023-02-02T00:56:44.580Z,97574.41
2023-02-02T00:59:12.123Z,97574.63
2023-02-02T01:01:39.798Z,97573.81
2023-02-02T01:04:06.989Z,97573.00
2023-02-02T01:06:34.495Z,97571.38
2023-02-02T01:09:02.687Z,97569.72
2023-02-02T01:11:30.922Z,97569.72
2023-02-02T01:13:58.292Z,97575.00
2023-02-02T01:16:25.854Z,97568.91
2023-02-02T01:18:53.532Z,97571.75
2023-02-02T01:21:21.611Z,97578.06
2023-02-02T01:23:49.143Z,97578.06
2023-02-02T01:26:17.928Z,97579.06
2023-02-02T01:28:45.575Z,97575.63
2023-02-02T01:31:18.175Z,97584.38
2023-02-02T01:33:47.027Z,97580.72
2023-02-02T01:36:17.414Z,97588.03
2023-02-02T01:38:44.905Z,97575.84
2023-02-02T01:41:14.891Z,97584.78
2023-02-02T01:43:42.835Z,97581.94
2023-02-02T01:46:16.505Z,97580.28
2023-02-02T01:48:52.779Z,97590.06
2023-02-02T01:51:24.067Z,97583.16
2023-02-02T01:53:53.955Z,97594.38
2023-02-02T01:56:34.230Z,97596.00
2023-02-02T01:59:03.551Z,97586.22
2023-02-02T02:01:31.298Z,97601.28
2023-02-02T02:03:59.270Z,97594.97
2023-02-02T02:06:28.295Z,97594.97
2023-02-02T02:09:03.235Z,97608.84
2023-02-02T02:11:32.771Z,97612.69
2023-02-02T02:14:22.054Z,97613.50
2023-02-02T02:17:27.493Z,97616.16
2023-02-02T02:20:13.175Z,97623.09
2023-02-02T02:23:30.880Z,97630.00
2023-02-02T02:26:33.860Z,97632.66
2023-02-02T02:29:07.299Z,97639.81
2023-02-02T02:32:03.781Z,97634.50
2023-02-02T02:34:49.661Z,97639.81
2023-02-02T02:37:36.553Z,97639.81
2023-02-02T02:40:13.726Z,97636.34
2023-02-02T02:42:47.156Z,97640.63
2023-02-02T02:45:17.820Z,97641.63
2023-02-02T02:47:45.117Z,97646.94
2023-02-02T02:50:12.626Z,97640.63
2023-02-02T02:52:41.626Z,97640.63
2023-02-02T02:55:11.478Z,97644.28
2023-02-02T02:57:47.625Z,97645.91
2023-02-02T03:00:42.425Z,97641.44
2023-02-02T03:03:27.806Z,97642.25
2023-02-02T03:05:58.175Z,97645.91
2023-02-02T03:08:48.924Z,97642.25
2023-02-02T03:11:17.192Z,97644.91
2023-02-02T03:13:44.599Z,97647.56
2023-02-02T03:16:12.277Z,97645.91
2023-02-02T03:18:39.585Z,97650.41
2023-02-02T03:21:07.046Z,97652.84
2023-02-02T03:23:34.656Z,97659.16
2023-02-02T03:26:02.252Z,97652.06
2023-02-02T03:28:30.162Z,97659.16
2023-02-02T03:31:01.082Z,97647.56
2023-02-02T03:33:28.541Z,97646.75
2023-02-02T03:35:56.003Z,97652.22
2023-02-02T03:38:23.223Z,97648.56
2023-02-02T03:40:51.500Z,97654.88
2023-02-02T03:43:23.450Z,97650.41
2023-02-02T03:46:05.545Z,97658.16
2023-02-02T03:48:36.942Z,97648.56
2023-02-02T03:51:12.851Z,97639.81
2023-02-02T03:53:44.322Z,97651.22
2023-02-02T03:56:11.810Z,97648.56
2023-02-02T03:58:39.043Z,97651.03
2023-02-02T04:01:10.175Z,97653.84
2023-02-02T04:03:37.667Z,97650.41
2023-02-02T04:06:05.328Z,97639.81
2023-02-02T04:08:33.930Z,97643.25
2023-02-02T04:11:01.565Z,97631.84
2023-02-02T04:13:29.198Z,97643.88
2023-02-02T04:16:00.611Z,97631.03
2023-02-02T04:18:28.542Z,97640.63
2023-02-02T04:20:59.752Z,97637.16
2023-02-02T04:23:28.444Z,97643.25
2023-02-02T04:25:56.694Z,97644.28
2023-02-02T04:28:24.886Z,97638.19
2023-02-02T04:30:54.257Z,97641.63
2023-02-02T04:33:23.070Z,97637.34
2023-02-02T04:35:50.633Z,97641.03
2023-02-02T04:38:18.498Z,97641.03
2023-02-02T04:40:47.444Z,97633.69
2023-02-02T04:43:14.652Z,97632.03
2023-02-02T04:45:42.489Z,97644.47
2023-02-02T04:48:10.050Z,97633.06
2023-02-02T04:50:37.563Z,97641.63
2023-02-02T04:53:04.905Z,97641.03
2023-02-02T04:55:36.370Z,97630.44
2023-02-02T04:58:03.911Z,97630.44
2023-02-02T05:00:31.418Z,97634.69
2023-02-02T05:02:58.634Z,97633.06
2023-02-02T05:05:26.585Z,97637.34
2023-02-02T05:07:53.955Z,97636.53
2023-02-02T05:10:21.463Z,97636.53
2023-02-02T05:12:48.784Z,97643.66
2023-02-02T05:15:16.484Z,97641.81
2023-02-02T05:17:44.238Z,97637.56
2023-02-02T05:20:12.184Z,97638.19
2023-02-02T05:22:39.700Z,97634.91
2023-02-02T05:25:08.320Z,97635.72
2023-02-02T05:27:35.679Z,97633.06
2023-02-02T05:30:03.423Z,97632.03
2023-02-02T05:32:30.629Z,97635.72
2023-02-02T05:34:58.127Z,97629.63
2023-02-02T05:37:25.520Z,97623.50
2023-02-02T05:39:53.704Z,97631.44
2023-02-02T05:42:21.199Z,97624.31
2023-02-02T05:44:48.670Z,97629.63
2023-02-02T05:47:15.907Z,97633.06
2023-02-02T05:49:43.337Z,97630.44
2023-02-02T05:52:17.685Z,97631.22
2023-02-02T05:54:45.779Z,97634.69
2023-02-02T05:57:12.983Z,97625.13
2023-02-02T05:59:40.446Z,97619.03
2023-02-02T06:02:07.742Z,97628.81
2023-02-02T06:04:35.187Z,97619.03
2023-02-02T06:07:02.473Z,97617.19
2023-02-02T06:09:30.016Z,97625.13
2023-02-02T06:11:57.706Z,97612.91
2023-02-02T06:14:25.284Z,97612.91
2023-02-02T06:16:52.580Z,97622.66
2023-02-02T06:19:20.054Z,97617.38
2023-02-02T06:21:47.322Z,97623.50
2023-02-02T06:24:14.883Z,97621.84
2023-02-02T06:26:42.117Z,97628.81
2023-02-02T06:29:13.844Z,97626.97
2023-02-02T06:31:41.557Z,97618.22
2023-02-02T06:34:13.505Z,97624.31
2023-02-02T06:36:41.488Z,97613.91
2023-02-02T06:39:10.036Z,97625.31
2023-02-02T06:41:37.344Z,97625.94
2023-02-02T06:44:04.834Z,97632.25
2023-02-02T06:46:32.219Z,97634.09
2023-02-02T06:49:00.107Z,97641.41
2023-02-02T06:51:27.263Z,97638.56
2023-02-02T06:53:54.702Z,97645.06
2023-02-02T06:56:22.905Z,97642.41
2023-02-02T06:58:50.417Z,97634.66
2023-02-02T07:01:18.489Z,97643.44
2023-02-02T07:03:50.187Z,97638.16
2023-02-02T07:06:22.712Z,97634.88
2023-02-02T07:09:02.278Z,97626.72
2023-02-02T07:11:34.756Z,97633.22
2023-02-02T07:14:04.856Z,97623.44
2023-02-02T07:16:32.254Z,97625.91
2023-02-02T07:18:59.780Z,97628.56
2023-02-02T07:21:35.417Z,97622.63
2023-02-02T07:24:04.740Z,97621.00
2023-02-02T07:26:33.833Z,97620.22
2023-02-02T07:29:01.474Z,97626.31
2023-02-02T07:31:29.326Z,97624.66
2023-02-02T07:33:56.959Z,97631.59
2023-02-02T07:36:25.148Z,97629.97
2023-02-02T07:39:04.539Z,97624.66
2023-02-02T07:41:33.953Z,97615.09
2023-02-02T07:44:01.782Z,97618.75
2023-02-02T07:46:29.140Z,97619.59
2023-02-02T07:48:57.117Z,97619.78
2023-02-02T07:51:26.427Z,97619.78
2023-02-02T07:53:54.966Z,97617.75
2023-02-02T07:56:24.669Z,97612.81
2023-02-02T07:58:53.968Z,97615.09
2023-02-02T08:01:23.161Z,97623.84
2023-02-02T08:03:50.882Z,97617.94
2023-02-02T08:06:20.858Z,97614.47
2023-02-02T08:08:48.949Z,97615.47
2023-02-02T08:11:19.178Z,97620.78
2023-02-02T08:13:50.256Z,97617.31
2023-02-02T08:16:18.480Z,97623.41
2023-02-02T08:18:46.309Z,97619.78
2023-02-02T08:21:13.833Z,97612.81
2023-02-02T08:23:42.643Z,97624.63
2023-02-02T08:26:12.997Z,97618.13
2023-02-02T08:28:42.332Z,97627.09
2023-02-02T08:31:16.022Z,97625.06
2023-02-02T08:33:43.917Z,97625.06
2023-02-02T08:36:15.944Z,97629.75
2023-02-02T08:38:43.664Z,97634.84
2023-02-02T08:41:14.294Z,97635.66
2023-02-02T08:43:42.640Z,97639.31
2023-02-02T08:46:12.130Z,97641.94
2023-02-02T08:48:39.995Z,97646.25
2023-02-02T08:51:09.980Z,97641.94
2023-02-02T08:53:37.650Z,97645.44
2023-02-02T08:56:07.360Z,97646.25
2023-02-02T08:58:35.055Z,97651.53
2023-02-02T09:01:06.992Z,97656.84
2023-02-02T09:03:35.042Z,97649.91
2023-02-02T09:06:07.181Z,97652.53
2023-02-02T09:08:35.074Z,97657.03
2023-02-02T09:11:12.371Z,97660.47
2023-02-02T09:13:40.918Z,97665.78
2023-02-02T09:16:10.741Z,97665.78
2023-02-02T09:18:39.038Z,97675.56
2023-02-02T09:21:08.863Z,97678.22
2023-02-02T09:23:38.894Z,97672.09
2023-02-02T09:26:10.532Z,97681.88
2023-02-02T09:28:40.007Z,97687.19
2023-02-02T09:31:08.175Z,97678.41
2023-02-02T09:33:36.595Z,97688.00
2023-02-02T09:36:14.547Z,97686.56
2023-02-02T09:38:43.337Z,97702.44
2023-02-02T09:41:18.839Z,97704.88
2023-02-02T09:44:01.354Z,97710.16
2023-02-02T09:46:46.983Z,97703.88
2023-02-02T09:49:25.870Z,97706.53
2023-02-02T09:51:59.693Z,97708.53
2023-02-02T09:54:36.705Z,97711.19
2023-02-02T09:57:15.058Z,97708.53
2023-02-02T09:59:44.117Z,97719.13
2023-02-02T10:02:22.488Z,97717.31
2023-02-02T10:05:00.569Z,97716.50
2023-02-02T10:07:35.461Z,97718.31
2023-02-02T10:10:11.150Z,97717.13
2023-02-02T10:13:00.194Z,97719.13
2023-02-02T10:15:42.222Z,97719.13
2023-02-02T10:18:32.891Z,97730.53
2023-02-02T10:21:06.050Z,97717.53
2023-02-02T10:23:39.372Z,97726.28
2023-02-02T10:26:36.649Z,97727.28
2023-02-02T10:29:13.139Z,97731.75
2023-02-02T10:31:55.091Z,97743.16
2023-02-02T10:35:03.470Z,97742.53
2023-02-02T10:37:54.022Z,97756.59
2023-02-02T10:40:39.276Z,97743.38
2023-02-02T10:43:44.118Z,97752.13
2023-02-02T10:46:42.293Z,97752.94
2023-02-02T10:49:28.973Z,97752.94
2023-02-02T10:52:19.093Z,97748.44
2023-02-02T10:55:00.932Z,97761.06
2023-02-02T10:57:46.951Z,97773.31
2023-02-02T11:00:51.402Z,97772.50
2023-02-02T11:03:21.850Z,97768.19
2023-02-02T11:06:07.944Z,97774.50
2023-02-02T11:08:39.005Z,97770.22
2023-02-02T11:11:53.995Z,97783.44
2023-02-02T11:14:45.099Z,97776.53
2023-02-02T11:17:22.574Z,97792.41
2023-02-02T11:19:50.291Z,97772.22
2023-02-02T11:22:45.096Z,97781.81
2023-02-02T11:25:39.557Z,97784.47
2023-02-02T11:28:18.784Z,97782.00
2023-02-02T11:30:49.334Z,97787.31
2023-02-02T11:33:19.802Z,97790.75
2023-02-02T11:35:56.122Z,97793.41
2023-02-02T11:38:24.123Z,97794.44
2023-02-02T11:41:03.822Z,97798.06
2023-02-02T11:43:44.169Z,97802.38
2023-02-02T11:46:20.781Z,97806.00
2023-02-02T11:49:04.075Z,97808.66
2023-02-02T11:51:32.110Z,97815.63
2023-02-02T11:54:07.532Z,97810.31
2023-02-02T11:56:36.907Z,97821.72
2023-02-02T11:59:05.436Z,97819.25
2023-02-02T12:01:39.821Z,97826.56
2023-02-02T12:04:13.599Z,97812.34
2023-02-02T12:06:41.474Z,97833.50
2023-02-02T12:09:21.437Z,97828.22
2023-02-02T12:11:48.765Z,97828.22
2023-02-02T12:14:25.082Z,97834.31
2023-02-02T12:17:17.163Z,97832.50
2023-02-02T12:20:12.676Z,97835.13
2023-02-02T12:23:07.264Z,97850.38
2023-02-02T12:25:39.578Z,97850.38
2023-02-02T12:28:33.961Z,97853.88
2023-02-02T12:31:16.809Z,97862.63
2023-02-02T12:34:21.358Z,97864.47
2023-02-02T12:37:03.988Z,97876.88
2023-02-02T12:39:58.104Z,97870.94
2023-02-02T12:42:49.439Z,97877.88
2023-02-02T12:45:34.992Z,97882.38
2023-02-02T12:48:33.400Z,97884.00
2023-02-02T12:51:19.411Z,97886.81
2023-02-02T12:54:34.882Z,97894.59
2023-02-02T12:57:22.958Z,97883.19
2023-02-02T13:00:27.681Z,97899.06
2023-02-02T13:03:14.261Z,97898.25
2023-02-02T13:05:50.412Z,97905.19
2023-02-02T13:08:31.226Z,97909.66
2023-02-02T13:11:06.595Z,97904.34
2023-02-02T13:13:38.317Z,97907.00
2023-02-02T13:16:12.988Z,97903.72
2023-02-02T13:18:55.724Z,97909.03
2023-02-02T13:21:24.930Z,97910.00
2023-02-02T13:23:56.460Z,97909.03
2023-02-02T13:26:27.815Z,97911.66
2023-02-02T13:29:10.339Z,97923.25
2023-02-02T13:31:47.192Z,97920.59
2023-02-02T13:34:24.543Z,97923.25
2023-02-02T13:37:02.562Z,97927.56
2023-02-02T13:39:38.380Z,97938.13
2023-02-02T13:42:16.854Z,97935.69
2023-02-02T13:44:53.667Z,97935.03
2023-02-02T13:47:32.630Z,97951.75
2023-02-02T13:50:12.143Z,97962.34
2023-02-02T13:53:12.738Z,97966.63
2023-02-02T13:56:13.230Z,97973.13
2023-02-02T13:59:04.473Z,97970.47
2023-02-02T14:01:32.450Z,97977.59
2023-02-02T14:04:00.650Z,97983.72
2023-02-02T14:06:30.794Z,97992.63
2023-02-02T14:09:04.401Z,97995.28
2023-02-02T14:11:34.459Z,98006.09
2023-02-02T14:14:43.324Z,98002.41
2023-02-02T14:17:13.220Z,98012.19
2023-02-02T14:19:55.183Z,98016.66
2023-02-02T14:22:41.890Z,98015.00
2023-02-02T14:25:34.141Z,98029.28
2023-02-02T14:28:03.405Z,98026.78
2023-02-02T14:30:38.467Z,98028.63
2023-02-02T14:33:25.048Z,98040.19
2023-02-02T14:36:01.081Z,98042.69
2023-02-02T14:38:54.932Z,98054.91
2023-02-02T14:42:02.584Z,98056.09
2023-02-02T14:44:30.684Z,98066.03
2023-02-02T14:46:59.027Z,98075.63
2023-02-02T14:49:34.655Z,98077.63
2023-02-02T14:52:05.152Z,98070.69
2023-02-02T14:54:37.161Z,98086.56
2023-02-02T14:57:27.337Z,98087.22
2023-02-02T14:59:58.186Z,98091.50
2023-02-02T15:02:33.032Z,98096.63
2023-02-02T15:05:40.251Z,98105.38
2023-02-02T15:08:20.392Z,98097.44
2023-02-02T15:10:48.131Z,98108.03
2023-02-02T15:13:18.963Z,98112.31
2023-02-02T15:15:49.242Z,98124.56
2023-02-02T15:18:18.761Z,98124.56
2023-02-02T15:20:49.745Z,98133.50
2023-02-02T15:23:42.182Z,98132.66
2023-02-02T15:26:19.530Z,98140.44
2023-02-02T15:28:54.598Z,98146.56
2023-02-02T15:31:29.445Z,98145.75
2023-02-02T15:34:01.270Z,98151.03
2023-02-02T15:36:32.279Z,98151.03
2023-02-02T15:39:08.368Z,98161.63
2023-02-02T15:41:42.372Z,98157.13
2023-02-02T15:44:28.321Z,98174.66
2023-02-02T15:46:57.911Z,98172.00
2023-02-02T15:49:34.339Z,98182.41
2023-02-02T15:52:12.856Z,98178.78
2023-02-02T15:54:51.037Z,98185.34
2023-02-02T15:57:28.230Z,98199.22
2023-02-02T15:59:56.558Z,98198.88
2023-02-02T16:02:34.541Z,98216.06
2023-02-02T16:05:02.098Z,98215.69
2023-02-02T16:07:32.154Z,98221.63
2023-02-02T16:10:05.793Z,98223.88
2023-02-02T16:12:34.542Z,98232.47
2023-02-02T16:15:02.108Z,98233.13
2023-02-02T16:17:31.950Z,98246.66
2023-02-02T16:20:08.491Z,98249.94
2023-02-02T16:22:37.079Z,98254.06
2023-02-02T16:25:10.180Z,98266.13
2023-02-02T16:27:37.731Z,98262.09
2023-02-02T16:30:09.071Z,98276.81
2023-02-02T16:32:39.135Z,98278.91
2023-02-02T16:35:30.163Z,98278.72
2023-02-02T16:38:20.376Z,98293.28
2023-02-02T16:40:48.053Z,98293.28
2023-02-02T16:43:26.880Z,98295.72
2023-02-02T16:45:57.620Z,98301.00
2023-02-02T16:48:37.032Z,98311.25
2023-02-02T16:51:07.261Z,98312.09
2023-02-02T16:53:35.487Z,98327.16
2023-02-02T16:56:05.299Z,98326.78
2023-02-02T16:58:39.097Z,98336.19
2023-02-02T17:01:16.723Z,98336.72
2023-02-02T17:03:53.150Z,98353.41
2023-02-02T17:06:41.652Z,98356.28
2023-02-02T17:09:34.026Z,98351.78
2023-02-02T17:12:30.718Z,98367.31
2023-02-02T17:15:21.434Z,98371.00
2023-02-02T17:17:49.501Z,98375.47
2023-02-02T17:20:18.242Z,98379.09
2023-02-02T17:22:49.140Z,98380.56
2023-02-02T17:25:28.878Z,98387.34
2023-02-02T17:27:58.450Z,98390.19
2023-02-02T17:30:26.675Z,98391.00
2023-02-02T17:32:54.128Z,98402.25
2023-02-02T17:35:24.624Z,98396.31
2023-02-02T17:37:53.560Z,98396.31
2023-02-02T17:40:22.384Z,98397.94
2023-02-02T17:42:53.114Z,98402.41
2023-02-02T17:45:28.299Z,98416.31
2023-02-02T17:47:55.822Z,98425.72
2023-02-02T17:50:23.460Z,98446.13
2023-02-02T17:52:51.088Z,98441.63
2023-02-02T17:55:21.710Z,98448.59
2023-02-02T17:57:49.958Z,98453.44
2023-02-02T18:00:19.112Z,98454.25
2023-02-02T18:02:48.629Z,98462.56
2023-02-02T18:05:16.644Z,98463.22
2023-02-02T18:07:44.687Z,98468.50
2023-02-02T18:10:14.165Z,98465.69
2023-02-02T18:12:42.332Z,98471.44
2023-02-02T18:15:12.956Z,98471.09
2023-02-02T18:17:40.721Z,98465.78
2023-02-02T18:20:09.588Z,98479.69
2023-02-02T18:22:38.165Z,98483.34
2023-02-02T18:25:06.082Z,98486.28
2023-02-02T18:27:33.763Z,98484.63
2023-02-02T18:30:01.414Z,98500.53
2023-02-02T18:32:30.874Z,98507.50
2023-02-02T18:34:58.329Z,98508.31
2023-02-02T18:37:25.888Z,98517.75
2023-02-02T18:39:53.945Z,98518.56
2023-02-02T18:42:21.392Z,98523.88
2023-02-02T18:44:48.659Z,98526.69
2023-02-02T18:47:16.121Z,98536.94
2023-02-02T18:49:43.671Z,98540.25
2023-02-02T18:52:11.162Z,98544.75
2023-02-02T18:54:38.901Z,98547.56
2023-02-02T18:57:06.403Z,98552.03
2023-02-02T18:59:35.976Z,98556.50
2023-02-02T19:02:03.706Z,98567.09
2023-02-02T19:04:31.638Z,98567.94
2023-02-02T19:07:17.599Z,98575.69
2023-02-02T19:09:44.879Z,98575.69
2023-02-02T19:12:13.998Z,98586.69
2023-02-02T19:14:42.347Z,98592.63
2023-02-02T19:17:28.035Z,98600.59
2023-02-02T19:20:02.288Z,98602.41
2023-02-02T19:22:32.370Z,98608.72
2023-02-02T19:25:12.771Z,98610.72
2023-02-02T19:27:40.851Z,98618.84
2023-02-02T19:30:23.990Z,98619.03
2023-02-02T19:32:51.760Z,98623.31
2023-02-02T19:35:25.354Z,98624.50
2023-02-02T19:38:01.250Z,98633.47
2023-02-02T19:40:29.264Z,98635.25
2023-02-02T19:43:14.876Z,98641.41
2023-02-02T19:45:42.161Z,98645.06
2023-02-02T19:48:31.104Z,98649.69
2023-02-02T19:51:00.304Z,98668.25
2023-02-02T19:53:42.321Z,98670.91
2023-02-02T19:56:27.963Z,98682.16
2023-02-02T19:58:55.482Z,98687.31
2023-02-02T20:01:26.360Z,98699.75
2023-02-02T20:03:55.187Z,98706.50
2023-02-02T20:06:30.385Z,98699.53
2023-02-02T20:09:00.031Z,98698.72
2023-02-02T20:11:41.236Z,98708.34
2023-02-02T20:14:18.812Z,98709.00
2023-02-02T20:16:51.895Z,98712.81
2023-02-02T20:19:22.747Z,98714.63
2023-02-02T20:21:51.864Z,98711.00
2023-02-02T20:24:27.721Z,98717.94
2023-02-02T20:27:00.686Z,98711.81
2023-02-02T20:29:40.016Z,98717.94
2023-02-02T20:32:22.326Z,98719.63
2023-02-02T20:34:50.915Z,98729.38
2023-02-02T20:37:25.231Z,98736.84
2023-02-02T20:39:57.674Z,98740.34
2023-02-02T20:42:25.242Z,98744.97
2023-02-02T20:44:52.879Z,98750.13
2023-02-02T20:47:21.535Z,98752.09
2023-02-02T20:49:49.403Z,98755.41
2023-02-02T20:52:23.839Z,98757.41
2023-02-02T20:54:51.927Z,98767.16
2023-02-02T20:57:19.323Z,98770.00
2023-02-02T20:59:47.977Z,98767.69
2023-02-02T21:02:18.876Z,98779.13
2023-02-02T21:04:47.725Z,98781.94
2023-02-02T21:07:17.058Z,98785.41
2023-02-02T21:09:45.253Z,98794.56
2023-02-02T21:12:13.115Z,98804.13
2023-02-02T21:14:40.624Z,98804.50
2023-02-02T21:17:15.323Z,98807.16
2023-02-02T21:19:43.441Z,98807.16
2023-02-02T21:22:12.016Z,98807.31
2023-02-02T21:24:39.597Z,98811.78
2023-02-02T21:27:07.620Z,98812.59
2023-02-02T21:29:34.920Z,98813.47
2023-02-02T21:32:03.350Z,98814.44
2023-02-02T21:34:31.877Z,98808.16
2023-02-02T21:36:59.657Z,98818.75
2023-02-02T21:39:32.832Z,98808.16
2023-02-02T21:42:00.259Z,98817.75
2023-02-02T21:44:27.679Z,98827.69
2023-02-02T21:46:55.111Z,98831.34
2023-02-02T21:49:26.147Z,98831.00
2023-02-02T21:52:00.159Z,98843.25
2023-02-02T21:54:29.680Z,98842.25
2023-02-02T21:56:57.305Z,98842.25
2023-02-02T21:59:33.402Z,98848.88
2023-02-02T22:02:21.782Z,98842.75
2023-02-02T22:04:49.020Z,98851.38
2023-02-02T22:07:16.731Z,98856.84
2023-02-02T22:09:46.073Z,98858.47
2023-02-02T22:12:23.405Z,98866.28
2023-02-02T22:15:00.264Z,98869.44
2023-02-02T22:17:33.421Z,98879.69
2023-02-02T22:20:10.053Z,98884.00
2023-02-02T22:22:46.463Z,98890.94
2023-02-02T22:25:16.698Z,98886.66
2023-02-02T22:27:50.467Z,98893.94
2023-02-02T22:30:39.917Z,98899.25
2023-02-02T22:33:09.764Z,98895.94
2023-02-02T22:35:37.070Z,98898.25
2023-02-02T22:38:05.500Z,98905.38
2023-02-02T22:40:33.228Z,98900.91
2023-02-02T22:43:03.173Z,98902.88
2023-02-02T22:45:30.393Z,98905.53
2023-02-02T22:47:58.071Z,98908.19
2023-02-02T22:50:28.797Z,98908.19
2023-02-02T22:52:56.749Z,98913.50
2023-02-02T22:55:24.364Z,98921.63
2023-02-02T22:57:52.011Z,98926.09
2023-02-02T23:00:22.297Z,98926.09
2023-02-02T23:02:50.243Z,98934.03
2023-02-02T23:05:19.701Z,98938.66
2023-02-02T23:07:47.630Z,98943.00
2023-02-02T23:10:17.709Z,98937.69
2023-02-02T23:12:46.358Z,98921.78
2023-02-02T23:15:14.672Z,98926.44
2023-02-02T23:17:42.263Z,98944.81
2023-02-02T23:20:12.394Z,98937.03
2023-02-02T23:22:40.477Z,98946.63
2023-02-02T23:25:08.536Z,98946.00
2023-02-02T23:27:36.313Z,98943.50
2023-02-02T23:30:05.396Z,98942.69
2023-02-02T23:32:33.883Z,98942.69
2023-02-02T23:35:01.517Z,98947.31
2023-02-02T23:37:30.373Z,98946.31
2023-02-02T23:39:57.798Z,98949.63
2023-02-02T23:42:25.882Z,98949.97
2023-02-02T23:44:53.333Z,98956.91
2023-02-02T23:47:21.138Z,98959.69
2023-02-02T23:49:48.747Z,98953.56
2023-02-02T23:52:16.998Z,98964.16
2023-02-02T23:54:44.633Z,98972.81
2023-02-02T23:57:12.157Z,98977.28
2023-02-02T23:59:39.311Z,98988.84
